createdAt,value
2022-12-03T00:09:54.861Z,97614.69
2022-12-03T00:19:57.351Z,97617.38
2022-12-03T00:29:59.770Z,97617.19
2022-12-03T00:40:05.054Z,97618.00
2022-12-03T00:50:08.497Z,97607.09
2022-12-03T01:00:13.492Z,97617.66
2022-12-03T01:10:15.992Z,97607.37
2022-12-03T01:20:18.748Z,97617.47
2022-12-03T01:30:21.227Z,97627.97
2022-12-03T01:40:23.805Z,97628.78
2022-12-03T01:50:35.299Z,97629.94
2022-12-03T02:00:37.598Z,97636.06
2022-12-03T02:10:40.119Z,97634.41
2022-12-03T02:21:01.406Z,97633.22
2022-12-03T02:31:05.594Z,97635.94
2022-12-03T02:41:33.379Z,97623.03
2022-12-03T02:51:36.505Z,97615.03
2022-12-03T03:01:38.949Z,97615.87
2022-12-03T03:11:41.434Z,97607.94
2022-12-03T03:21:43.821Z,97598.00
2022-12-03T03:31:47.618Z,97593.03
2022-12-03T03:41:50.170Z,97599.94
2022-12-03T03:51:52.844Z,97577.16
2022-12-03T04:01:55.251Z,97589.94
2022-12-03T04:12:16.651Z,97612.69
2022-12-03T04:22:37.348Z,97585.09
2022-12-03T04:32:58.736Z,97602.72
2022-12-03T04:43:01.288Z,97606.38
2022-12-03T04:53:03.918Z,97609.66
2022-12-03T05:03:06.491Z,97606.16
2022-12-03T05:13:09.518Z,97596.94
2022-12-03T05:23:13.953Z,97606.81
2022-12-03T05:33:17.474Z,97598.81
2022-12-03T05:43:19.967Z,97607.63
2022-12-03T05:53:22.264Z,97621.53
2022-12-03T06:03:24.813Z,97617.25
2022-12-03T06:13:27.375Z,97619.50
2022-12-03T06:23:29.790Z,97618.28
2022-12-03T06:33:32.289Z,97606.63
2022-12-03T06:43:34.988Z,97600.69
2022-12-03T06:53:37.470Z,97597.22
2022-12-03T07:03:39.933Z,97592.91
2022-12-03T07:13:42.497Z,97595.78
2022-12-03T07:23:44.855Z,97605.19
2022-12-03T07:33:47.702Z,97601.28
2022-12-03T07:43:50.111Z,97607.78
2022-12-03T07:53:52.765Z,97590.75
2022-12-03T08:03:55.504Z,97589.09
2022-12-03T08:13:59.088Z,97602.94
2022-12-03T08:24:16.726Z,97609.41
2022-12-03T08:34:26.061Z,97596.72
2022-12-03T08:44:41.690Z,97600.75
2022-12-03T08:54:48.856Z,97592.03
2022-12-03T09:04:53.633Z,97589.16
2022-12-03T09:14:57.402Z,97599.06
2022-12-03T09:25:00.304Z,97594.00
2022-12-03T09:35:05.536Z,97585.69
2022-12-03T09:45:13.739Z,97588.88
2022-12-03T09:55:22.469Z,97584.13
2022-12-03T10:05:26.366Z,97571.22
2022-12-03T10:15:29.159Z,97552.22
2022-12-03T10:25:31.831Z,97543.78
2022-12-03T10:35:40.234Z,97536.19
2022-12-03T10:45:44.572Z,97530.25
2022-12-03T10:55:52.237Z,97510.31
2022-12-03T11:05:56.659Z,97509.16
2022-12-03T11:16:06.127Z,97491.94
2022-12-03T11:26:11.169Z,97499.78
2022-12-03T11:36:24.412Z,97494.91
2022-12-03T11:46:45.251Z,97495.22
2022-12-03T11:56:50.026Z,97466.06
2022-12-03T12:06:53.578Z,97453.31
2022-12-03T12:16:59.532Z,97446.13
2022-12-03T12:27:15.652Z,97436.19
2022-12-03T12:37:27.462Z,97410.06
2022-12-03T12:47:31.653Z,97410.66
2022-12-03T12:57:34.881Z,97403.16
2022-12-03T13:07:38.337Z,97410.13
2022-12-03T13:17:40.887Z,97406.28
2022-12-03T13:27:50.179Z,97405.62
2022-12-03T13:37:53.596Z,97399.19
2022-12-03T13:47:58.949Z,97392.97
2022-12-03T13:58:01.950Z,97389.00
2022-12-03T14:08:06.326Z,97379.00
2022-12-03T14:18:09.690Z,97368.97
2022-12-03T14:28:12.680Z,97365.50
2022-12-03T14:38:15.051Z,97375.28
2022-12-03T14:48:17.578Z,97378.47
2022-12-03T14:58:20.222Z,97371.22
2022-12-03T15:08:24.062Z,97375.38
2022-12-03T15:18:26.795Z,97372.88
2022-12-03T15:28:29.264Z,97382.13
2022-12-03T15:38:34.143Z,97360.06
2022-12-03T15:48:36.586Z,97364.19
2022-12-03T15:58:40.150Z,97364.66
2022-12-03T16:08:43.221Z,97358.06
2022-12-03T16:18:46.038Z,97360.94
2022-12-03T16:28:49.372Z,97350.47
2022-12-03T16:38:52.110Z,97352.12
2022-12-03T16:48:58.697Z,97338.72
2022-12-03T16:59:01.259Z,97332.19
2022-12-03T17:09:04.079Z,97329.75
2022-12-03T17:19:06.748Z,97331.53
2022-12-03T17:29:09.123Z,97330.50
2022-12-03T17:39:11.849Z,97319.81
2022-12-03T17:49:14.469Z,97303.25
2022-12-03T17:59:17.575Z,97319.47
2022-12-03T18:09:20.325Z,97297.91
2022-12-03T18:19:23.462Z,97302.19
2022-12-03T18:29:26.217Z,97305.91
2022-12-03T18:39:36.264Z,97315.75
2022-12-03T18:49:38.876Z,97310.66
2022-12-03T18:59:42.765Z,97324.59
2022-12-03T19:09:45.898Z,97319.25
2022-12-03T19:19:48.499Z,97319.41
2022-12-03T19:29:52.099Z,97308.28
2022-12-03T19:39:55.216Z,97303.97
2022-12-03T19:49:58.160Z,97304.34
2022-12-03T20:00:01.809Z,97299.50
2022-12-03T20:10:06.191Z,97295.44
2022-12-03T20:20:09.928Z,97288.84
2022-12-03T20:30:12.951Z,97298.72
2022-12-03T20:40:16.288Z,97290.94
2022-12-03T20:50:19.532Z,97278.88
2022-12-03T21:00:22.733Z,97283.97
2022-12-03T21:10:37.452Z,97274.09
2022-12-03T21:20:42.281Z,97285.22
2022-12-03T21:30:45.011Z,97275.97
2022-12-03T21:40:48.919Z,97276.19
2022-12-03T21:51:03.889Z,97261.81
2022-12-03T22:01:14.882Z,97263.91
2022-12-03T22:11:20.738Z,97274.34
2022-12-03T22:21:25.515Z,97293.81
2022-12-03T22:31:29.038Z,97286.63
2022-12-03T22:41:32.018Z,97284.06
2022-12-03T22:51:34.967Z,97279.53
2022-12-03T23:01:40.201Z,97281.63
2022-12-03T23:11:45.049Z,97283.25
2022-12-03T23:21:48.275Z,97281.63
2022-12-03T23:31:51.047Z,97271.97
2022-12-03T23:41:54.456Z,97261.31
2022-12-03T23:51:57.048Z,97247.19
